createdAt,value
2018-06-11T00:02:08.003Z,18.54
2018-06-11T00:04:37.878Z,18.43
2018-06-11T00:07:07.929Z,18.38
2018-06-11T00:09:37.658Z,18.40
2018-06-11T00:12:07.310Z,18.40
2018-06-11T00:14:37.096Z,18.32
2018-06-11T00:17:06.826Z,18.21
2018-06-11T00:19:36.736Z,18.15
2018-06-11T00:22:06.418Z,18.15
2018-06-11T00:24:36.143Z,18.27
2018-06-11T00:27:05.842Z,18.46
2018-06-11T00:29:35.735Z,18.45
2018-06-11T00:32:05.427Z,18.50
2018-06-11T00:34:35.233Z,18.60
2018-06-11T00:37:05.023Z,18.72
2018-06-11T00:39:34.712Z,18.84
2018-06-11T00:42:04.902Z,19.02
2018-06-11T00:44:34.666Z,19.16
2018-06-11T00:47:04.348Z,19.13
2018-06-11T00:49:34.106Z,19.04
2018-06-11T00:52:03.786Z,19.07
2018-06-11T00:54:33.579Z,19.03
2018-06-11T00:57:03.384Z,18.98
2018-06-11T00:59:33.168Z,18.90
2018-06-11T01:02:02.995Z,18.95
2018-06-11T01:04:32.673Z,18.93
2018-06-11T01:07:02.417Z,18.88
2018-06-11T01:09:32.228Z,18.77
2018-06-11T01:12:02.173Z,18.68
2018-06-11T01:14:31.954Z,18.76
2018-06-11T01:17:01.650Z,18.73
2018-06-11T01:19:31.439Z,18.64
2018-06-11T01:22:01.739Z,18.74
2018-06-11T01:24:31.546Z,18.86
2018-06-11T01:27:00.963Z,18.74
2018-06-11T01:29:30.678Z,18.61
2018-06-11T01:32:00.487Z,18.60
2018-06-11T01:34:30.158Z,18.64
2018-06-11T01:36:59.968Z,18.70
2018-06-11T01:39:29.671Z,18.67
2018-06-11T01:41:59.498Z,18.72
2018-06-11T01:44:29.315Z,18.74
2018-06-11T01:46:59.176Z,18.76
2018-06-11T01:49:28.931Z,18.79
2018-06-11T01:51:58.624Z,18.80
2018-06-11T01:54:28.487Z,18.82
2018-06-11T01:56:58.281Z,18.85
2018-06-11T01:59:27.998Z,18.92
2018-06-11T02:01:57.828Z,18.90
2018-06-11T02:04:27.785Z,18.90
2018-06-11T02:06:57.511Z,19.00
2018-06-11T02:09:27.431Z,19.07
2018-06-11T02:11:57.312Z,19.20
2018-06-11T02:14:27.013Z,19.25
2018-06-11T02:16:56.783Z,19.32
2018-06-11T02:19:26.457Z,19.36
2018-06-11T02:21:56.215Z,19.35
2018-06-11T02:24:25.907Z,19.41
2018-06-11T02:26:55.622Z,19.42
2018-06-11T02:29:25.306Z,19.40
2018-06-11T02:31:55.043Z,19.37
2018-06-11T02:34:24.803Z,19.30
2018-06-11T02:36:54.574Z,19.30
2018-06-11T02:39:24.295Z,19.32
2018-06-11T02:41:54.206Z,19.41
2018-06-11T02:44:23.996Z,19.44
2018-06-11T02:46:53.942Z,19.45
2018-06-11T02:49:23.664Z,19.47
2018-06-11T02:51:53.209Z,19.68
2018-06-11T02:54:22.679Z,19.84
2018-06-11T02:56:52.549Z,19.87
2018-06-11T02:59:22.418Z,20.00
2018-06-11T03:01:52.142Z,20.03
2018-06-11T03:04:21.687Z,20.12
2018-06-11T03:06:51.483Z,20.19
2018-06-11T03:09:21.404Z,20.22
2018-06-11T03:11:51.290Z,20.29
2018-06-11T03:14:21.114Z,20.29
2018-06-11T03:16:50.997Z,20.29
2018-06-11T03:19:20.962Z,20.24
2018-06-11T03:21:51.038Z,20.27
2018-06-11T03:24:20.766Z,20.37
2018-06-11T03:26:50.212Z,20.42
2018-06-11T03:29:19.973Z,20.40
2018-06-11T03:31:49.660Z,20.41
2018-06-11T03:34:19.570Z,20.49
2018-06-11T03:36:49.368Z,20.56
2018-06-11T03:39:19.075Z,20.60
2018-06-11T03:41:49.062Z,20.61
2018-06-11T03:44:18.801Z,20.69
2018-06-11T03:46:48.493Z,20.69
2018-06-11T03:49:18.188Z,20.77
2018-06-11T03:51:47.884Z,20.71
2018-06-11T03:54:17.841Z,20.72
2018-06-11T03:56:47.525Z,20.77
2018-06-11T03:59:17.471Z,21.07
2018-06-11T04:01:47.421Z,21.47
2018-06-11T04:04:17.467Z,21.79
2018-06-11T04:06:47.398Z,22.04
2018-06-11T04:09:17.094Z,22.22
2018-06-11T04:11:46.790Z,22.39
2018-06-11T04:14:16.589Z,22.73
2018-06-11T04:16:46.275Z,23.00
2018-06-11T04:19:16.011Z,23.23
2018-06-11T04:21:45.719Z,23.35
2018-06-11T04:24:15.564Z,23.41
2018-06-11T04:26:45.277Z,23.46
2018-06-11T04:29:15.007Z,23.53
2018-06-11T04:31:44.751Z,23.56
2018-06-11T04:34:14.188Z,23.72
2018-06-11T04:36:44.580Z,24.10
2018-06-11T04:39:14.858Z,24.50
2018-06-11T04:41:45.212Z,24.60
2018-06-11T04:44:15.551Z,24.47
2018-06-11T04:46:45.959Z,24.22
2018-06-11T04:49:16.430Z,23.96
2018-06-11T04:51:47.336Z,23.69
2018-06-11T04:54:17.737Z,23.52
2018-06-11T04:56:48.097Z,23.42
2018-06-11T04:59:18.503Z,23.34
2018-06-11T05:01:48.187Z,23.29
2018-06-11T05:04:18.059Z,23.14
2018-06-11T05:06:48.380Z,23.13
2018-06-11T05:09:18.187Z,23.04
2018-06-11T05:11:47.971Z,23.00
2018-06-11T05:14:17.726Z,22.96
2018-06-11T05:16:47.672Z,22.97
2018-06-11T05:19:17.479Z,23.01
2018-06-11T05:21:47.298Z,23.11
2018-06-11T05:24:17.159Z,23.23
2018-06-11T05:26:46.994Z,23.24
2018-06-11T05:29:17.378Z,23.31
2018-06-11T05:31:47.662Z,23.40
2018-06-11T05:34:17.366Z,23.51
2018-06-11T05:36:47.251Z,23.60
2018-06-11T05:39:17.099Z,23.70
2018-06-11T05:41:46.876Z,23.78
2018-06-11T05:44:17.348Z,23.88
2018-06-11T05:46:48.596Z,23.88
2018-06-11T05:49:18.999Z,24.02
2018-06-11T05:51:48.773Z,24.13
2018-06-11T05:54:18.714Z,24.10
2018-06-11T05:56:48.523Z,24.00
2018-06-11T05:59:18.402Z,23.87
2018-06-11T06:01:48.151Z,23.77
2018-06-11T06:04:17.961Z,23.68
2018-06-11T06:06:48.006Z,23.47
2018-06-11T06:09:17.714Z,23.44
2018-06-11T06:11:47.511Z,23.34
2018-06-11T06:14:17.316Z,23.25
2018-06-11T06:16:47.339Z,23.13
2018-06-11T06:19:17.098Z,23.06
2018-06-11T06:21:46.926Z,22.99
2018-06-11T06:24:16.736Z,22.92
2018-06-11T06:26:46.679Z,22.80
2018-06-11T06:29:16.502Z,22.67
2018-06-11T06:31:46.326Z,22.63
2018-06-11T06:34:16.115Z,22.59
2018-06-11T06:36:46.235Z,22.58
2018-06-11T06:39:15.974Z,22.63
2018-06-11T06:41:46.201Z,22.60
2018-06-11T06:44:16.208Z,22.65
2018-06-11T06:46:45.985Z,22.72
2018-06-11T06:49:16.367Z,22.80
2018-06-11T06:51:46.079Z,22.95
2018-06-11T06:54:16.136Z,23.01
2018-06-11T06:56:45.615Z,23.07
2018-06-11T06:59:15.941Z,23.06
2018-06-11T07:01:46.352Z,23.09
2018-06-11T07:04:16.735Z,23.09
2018-06-11T07:06:46.870Z,23.07
2018-06-11T07:09:17.666Z,23.08
2018-06-11T07:11:47.954Z,23.06
2018-06-11T07:14:18.323Z,23.07
2018-06-11T07:16:48.689Z,23.01
2018-06-11T07:19:20.935Z,22.99
2018-06-11T07:21:51.387Z,22.98
2018-06-11T07:24:21.869Z,23.00
2018-06-11T07:26:52.138Z,23.04
2018-06-11T07:29:22.434Z,23.14
2018-06-11T07:31:52.822Z,23.27
2018-06-11T07:34:23.206Z,23.40
2018-06-11T07:36:53.476Z,23.53
2018-06-11T07:39:23.958Z,23.73
2018-06-11T07:41:54.285Z,23.87
2018-06-11T07:44:24.588Z,23.94
2018-06-11T07:46:55.037Z,23.92
2018-06-11T07:49:25.362Z,23.87
2018-06-11T07:51:55.708Z,23.71
2018-06-11T07:54:26.007Z,23.61
2018-06-11T07:56:56.573Z,23.49
2018-06-11T07:59:26.941Z,23.43
2018-06-11T08:01:56.673Z,23.43
2018-06-11T08:04:27.019Z,23.46
2018-06-11T08:06:57.442Z,23.45
2018-06-11T08:09:27.796Z,23.44
2018-06-11T08:11:58.106Z,23.47
2018-06-11T08:14:28.433Z,23.54
2018-06-11T08:16:58.778Z,23.58
2018-06-11T08:19:29.872Z,23.52
2018-06-11T08:22:00.206Z,23.46
2018-06-11T08:24:30.691Z,23.39
2018-06-11T08:27:01.056Z,23.40
2018-06-11T08:29:31.243Z,23.45
2018-06-11T08:32:01.631Z,23.48
2018-06-11T08:34:31.707Z,23.60
2018-06-11T08:37:02.058Z,23.82
2018-06-11T08:39:32.126Z,24.22
2018-06-11T08:42:02.538Z,24.86
2018-06-11T08:44:32.978Z,26.37
2018-06-11T08:47:03.670Z,28.40
2018-06-11T08:49:33.891Z,29.48
2018-06-11T08:52:04.200Z,30.23
2018-06-11T08:54:34.326Z,30.70
2018-06-11T08:57:05.116Z,31.63
2018-06-11T08:59:36.495Z,32.50
2018-06-11T09:02:06.815Z,32.55
2018-06-11T09:04:37.169Z,32.22
2018-06-11T09:07:07.692Z,32.13
2018-06-11T09:09:38.217Z,32.20
2018-06-11T09:12:08.504Z,32.26
2018-06-11T09:14:39.210Z,32.02
2018-06-11T09:17:09.577Z,31.55
2018-06-11T09:19:39.930Z,30.95
2018-06-11T09:22:10.394Z,30.25
2018-06-11T09:24:40.686Z,29.57
2018-06-11T09:27:11.055Z,28.97
2018-06-11T09:29:41.347Z,28.44
2018-06-11T09:32:11.774Z,28.03
2018-06-11T09:34:42.337Z,27.76
2018-06-11T09:37:12.921Z,27.48
2018-06-11T09:39:43.499Z,27.23
2018-06-11T09:42:13.905Z,27.06
2018-06-11T09:44:44.399Z,26.97
2018-06-11T09:47:14.744Z,27.16
2018-06-11T09:49:45.138Z,27.57
2018-06-11T09:52:15.179Z,27.96
2018-06-11T09:54:45.490Z,28.35
2018-06-11T09:57:15.522Z,28.68
2018-06-11T09:59:45.821Z,28.92
2018-06-11T10:02:16.961Z,29.12
2018-06-11T10:04:47.256Z,29.08
2018-06-11T10:07:17.603Z,29.11
2018-06-11T10:09:47.959Z,29.26
2018-06-11T10:12:18.413Z,29.46
2018-06-11T10:14:48.916Z,29.77
2018-06-11T10:17:19.252Z,30.16
2018-06-11T10:19:49.560Z,30.53
2018-06-11T10:22:19.955Z,30.83
2018-06-11T10:24:50.270Z,30.98
2018-06-11T10:27:20.820Z,31.04
2018-06-11T10:29:51.172Z,30.91
2018-06-11T10:35:03.471Z,30.70
2018-06-11T10:37:34.520Z,30.60
2018-06-11T10:40:05.287Z,30.68
2018-06-11T10:42:35.685Z,30.86
2018-06-11T10:45:06.134Z,30.89
2018-06-11T10:47:36.452Z,30.67
2018-06-11T10:50:07.198Z,30.54
2018-06-11T10:52:37.713Z,30.64
2018-06-11T10:55:08.179Z,30.77
2018-06-11T10:57:38.486Z,30.83
2018-06-11T11:00:09.058Z,30.73
2018-06-11T11:02:39.381Z,30.52
2018-06-11T11:05:09.769Z,30.41
2018-06-11T11:07:40.232Z,30.37
2018-06-11T11:10:10.368Z,30.27
2018-06-11T11:12:40.883Z,30.07
2018-06-11T11:15:11.419Z,30.00
2018-06-11T11:17:41.807Z,29.88
2018-06-11T11:20:12.303Z,29.85
2018-06-11T11:22:42.671Z,29.70
2018-06-11T11:25:13.264Z,29.49
2018-06-11T11:27:43.635Z,29.27
2018-06-11T11:30:14.000Z,29.23
2018-06-11T11:32:44.373Z,29.14
2018-06-11T11:35:14.685Z,29.24
2018-06-11T11:37:45.092Z,29.53
2018-06-11T11:40:15.474Z,29.76
2018-06-11T11:42:46.038Z,29.90
2018-06-11T11:45:16.343Z,30.04
2018-06-11T11:47:46.641Z,30.23
2018-06-11T11:50:17.115Z,30.50
2018-06-11T11:52:47.475Z,30.72
2018-06-11T11:55:17.749Z,30.90
2018-06-11T11:57:48.713Z,30.96
2018-06-11T12:00:19.014Z,31.06
2018-06-11T12:02:49.386Z,31.19
2018-06-11T12:05:19.644Z,31.38
2018-06-11T12:07:50.110Z,31.43
2018-06-11T12:10:20.534Z,31.47
2018-06-11T12:12:51.401Z,31.45
2018-06-11T12:15:21.698Z,31.19
2018-06-11T12:17:52.206Z,30.98
2018-06-11T12:20:22.262Z,30.94
2018-06-11T12:22:52.659Z,30.83
2018-06-11T12:25:23.813Z,30.86
2018-06-11T12:27:54.184Z,31.06
2018-06-11T12:30:24.621Z,31.20
2018-06-11T12:32:54.962Z,31.20
2018-06-11T12:35:25.402Z,30.92
2018-06-11T12:37:55.901Z,30.56
2018-06-11T12:40:26.291Z,30.29
2018-06-11T12:42:56.647Z,30.33
2018-06-11T12:45:27.046Z,30.38
2018-06-11T12:47:57.411Z,30.14
2018-06-11T12:50:27.918Z,29.84
2018-06-11T12:52:58.279Z,29.58
2018-06-11T12:55:28.618Z,29.38
2018-06-11T12:57:58.951Z,29.16
2018-06-11T13:00:30.025Z,28.79
2018-06-11T13:03:00.521Z,28.49
2018-06-11T13:05:30.844Z,28.22
2018-06-11T13:08:01.341Z,28.03
2018-06-11T13:10:31.718Z,27.87
2018-06-11T13:13:02.603Z,27.65
2018-06-11T13:15:32.977Z,27.52
2018-06-11T13:18:03.357Z,27.46
2018-06-11T13:20:33.614Z,27.45
2018-06-11T13:23:03.930Z,27.46
2018-06-11T13:25:34.439Z,27.50
2018-06-11T13:28:05.189Z,27.51
2018-06-11T13:30:35.569Z,27.51
2018-06-11T13:33:05.979Z,27.38
2018-06-11T13:35:36.346Z,27.32
2018-06-11T13:38:06.853Z,27.32
2018-06-11T13:40:37.937Z,27.29
2018-06-11T13:43:08.213Z,27.28
2018-06-11T13:45:38.278Z,27.28
2018-06-11T13:48:08.566Z,27.32
2018-06-11T13:50:39.218Z,27.37
2018-06-11T13:53:09.493Z,27.37
2018-06-11T13:55:40.099Z,27.35
2018-06-11T13:58:10.388Z,27.26
2018-06-11T14:00:40.696Z,27.14
2018-06-11T14:03:11.195Z,27.04
2018-06-11T14:05:41.516Z,27.02
2018-06-11T14:08:11.665Z,26.99
2018-06-11T14:10:42.059Z,27.01
2018-06-11T14:13:12.475Z,27.04
2018-06-11T14:15:42.746Z,27.15
2018-06-11T14:18:13.142Z,27.13
2018-06-11T14:20:43.390Z,27.09
2018-06-11T14:23:13.709Z,27.11
2018-06-11T14:25:44.070Z,27.10
2018-06-11T14:28:14.371Z,27.04
2018-06-11T14:30:44.650Z,27.06
2018-06-11T14:33:14.944Z,27.14
2018-06-11T14:35:45.201Z,27.22
2018-06-11T14:38:15.497Z,27.24
2018-06-11T14:40:46.386Z,27.25
2018-06-11T14:43:16.699Z,27.24
2018-06-11T14:45:47.026Z,27.24
2018-06-11T14:48:17.414Z,27.20
2018-06-11T14:50:47.890Z,27.08
2018-06-11T14:53:18.188Z,26.97
2018-06-11T14:55:48.547Z,26.94
2018-06-11T14:58:18.872Z,26.98
2018-06-11T15:00:49.436Z,27.01
2018-06-11T15:03:19.789Z,27.04
2018-06-11T15:05:50.116Z,27.10
2018-06-11T15:08:20.624Z,27.12
2018-06-11T15:10:51.047Z,27.20
2018-06-11T15:13:21.374Z,27.22
2018-06-11T15:15:51.750Z,27.20
2018-06-11T15:18:22.227Z,27.12
2018-06-11T15:20:52.474Z,27.03
2018-06-11T15:23:22.831Z,26.95
2018-06-11T15:25:53.135Z,26.92
2018-06-11T15:28:23.471Z,26.91
2018-06-11T15:30:53.815Z,26.91
2018-06-11T15:33:24.164Z,26.86
2018-06-11T15:35:54.608Z,26.73
2018-06-11T15:38:24.932Z,26.61
2018-06-11T15:40:55.248Z,26.57
2018-06-11T15:43:25.658Z,26.52
2018-06-11T15:45:56.262Z,26.51
2018-06-11T15:48:26.554Z,26.50
2018-06-11T15:50:56.917Z,26.45
2018-06-11T15:53:27.243Z,26.42
2018-06-11T15:55:57.573Z,26.33
2018-06-11T15:58:27.922Z,26.25
2018-06-11T16:00:58.362Z,26.23
2018-06-11T16:03:28.667Z,26.22
2018-06-11T16:05:59.125Z,26.13
2018-06-11T16:08:29.646Z,26.09
2018-06-11T16:10:59.955Z,26.05
2018-06-11T16:13:30.406Z,25.94
2018-06-11T16:16:00.896Z,25.85
2018-06-11T16:18:31.210Z,25.76
2018-06-11T16:21:02.418Z,25.76
2018-06-11T16:23:32.882Z,25.78
2018-06-11T16:26:03.211Z,25.82
2018-06-11T16:28:33.501Z,25.86
2018-06-11T16:31:03.880Z,25.84
2018-06-11T16:33:34.404Z,25.82
2018-06-11T16:36:04.827Z,25.81
2018-06-11T16:38:35.865Z,25.79
2018-06-11T16:41:07.599Z,25.63
2018-06-11T16:43:37.948Z,25.55
2018-06-11T16:46:08.370Z,25.47
2018-06-11T16:48:38.193Z,25.47
2018-06-11T16:51:07.981Z,25.42
2018-06-11T16:53:38.376Z,25.40
2018-06-11T16:56:08.742Z,25.42
2018-06-11T16:58:39.077Z,25.34
2018-06-11T17:01:09.534Z,25.35
2018-06-11T17:03:39.851Z,25.42
2018-06-11T17:06:10.192Z,25.39
2018-06-11T17:08:40.169Z,25.37
2018-06-11T17:11:10.474Z,25.33
2018-06-11T17:13:40.850Z,25.26
2018-06-11T17:16:10.645Z,25.26
2018-06-11T17:18:41.019Z,25.23
2018-06-11T17:21:10.773Z,25.13
2018-06-11T17:23:40.562Z,25.10
2018-06-11T17:26:10.558Z,25.00
2018-06-11T17:28:40.937Z,24.93
2018-06-11T17:31:10.698Z,24.84
2018-06-11T17:33:40.737Z,24.72
2018-06-11T17:36:11.154Z,24.67
2018-06-11T17:38:41.566Z,24.66
2018-06-11T17:41:11.866Z,24.63
2018-06-11T17:43:42.287Z,24.64
2018-06-11T17:46:12.644Z,24.59
2018-06-11T17:48:42.970Z,24.46
2018-06-11T17:51:13.320Z,24.30
2018-06-11T17:53:43.779Z,24.24
2018-06-11T17:56:14.154Z,24.12
2018-06-11T17:58:44.538Z,23.94
2018-06-11T18:01:14.833Z,23.91
2018-06-11T18:03:45.187Z,23.78
2018-06-11T18:06:15.667Z,23.63
2018-06-11T18:08:46.364Z,23.58
2018-06-11T18:11:16.776Z,23.51
2018-06-11T18:13:47.229Z,23.44
2018-06-11T18:16:17.659Z,23.41
2018-06-11T18:18:48.217Z,23.28
2018-06-11T18:21:19.701Z,23.18
2018-06-11T18:23:50.540Z,23.10
2018-06-11T18:26:20.861Z,23.03
2018-06-11T18:28:51.246Z,23.00
2018-06-11T18:31:21.639Z,23.00
2018-06-11T18:33:52.111Z,22.91
2018-06-11T18:36:22.528Z,22.82
2018-06-11T18:38:52.914Z,22.78
2018-06-11T18:41:23.670Z,22.80
2018-06-11T18:43:54.893Z,22.78
2018-06-11T18:46:25.233Z,22.58
2018-06-11T18:48:54.983Z,22.40
2018-06-11T18:51:24.732Z,22.26
2018-06-11T18:53:55.323Z,22.16
2018-06-11T18:56:25.227Z,22.07
2018-06-11T18:58:55.643Z,22.01
2018-06-11T19:01:25.412Z,21.98
2018-06-11T19:03:55.769Z,22.00
2018-06-11T19:06:26.102Z,22.00
2018-06-11T19:08:56.701Z,21.98
2018-06-11T19:11:26.513Z,21.98
2018-06-11T19:13:56.466Z,21.92
2018-06-11T19:16:26.741Z,21.84
2018-06-11T19:18:57.190Z,21.71
2018-06-11T19:21:27.400Z,21.66
2018-06-11T19:23:57.888Z,21.62
2018-06-11T19:26:29.301Z,21.55
2018-06-11T19:28:59.213Z,21.66
2018-06-11T19:31:29.192Z,21.68
2018-06-11T19:33:58.993Z,21.51
2018-06-11T19:36:28.781Z,21.43
2018-06-11T19:38:58.572Z,21.31
2018-06-11T19:41:28.348Z,21.23
2018-06-11T19:43:59.039Z,21.16
2018-06-11T19:46:28.836Z,21.18
2018-06-11T19:48:58.571Z,21.37
2018-06-11T19:51:28.315Z,21.22
2018-06-11T19:53:58.031Z,20.99
2018-06-11T19:56:27.881Z,20.78
2018-06-11T19:58:57.763Z,20.61
2018-06-11T20:01:27.721Z,20.56
2018-06-11T20:03:57.521Z,20.52
2018-06-11T20:06:27.320Z,20.45
2018-06-11T20:08:57.334Z,20.57
2018-06-11T20:11:26.816Z,20.50
2018-06-11T20:13:56.635Z,20.40
2018-06-11T20:16:26.415Z,20.26
2018-06-11T20:18:56.234Z,20.09
2018-06-11T20:21:25.740Z,19.97
2018-06-11T20:23:55.476Z,19.87
2018-06-11T20:26:25.286Z,19.82
2018-06-11T20:28:55.071Z,19.94
2018-06-11T20:31:24.794Z,19.85
2018-06-11T20:33:54.524Z,19.76
2018-06-11T20:36:24.245Z,19.78
2018-06-11T20:38:54.078Z,19.66
2018-06-11T20:41:23.846Z,19.59
2018-06-11T20:43:53.688Z,19.60
2018-06-11T20:46:23.439Z,19.62
2018-06-11T20:48:53.137Z,19.61
2018-06-11T20:51:22.944Z,19.75
2018-06-11T20:53:52.721Z,19.77
2018-06-11T20:56:22.542Z,19.69
2018-06-11T20:58:52.287Z,19.63
2018-06-11T21:01:22.056Z,19.53
2018-06-11T21:03:51.807Z,19.48
2018-06-11T21:06:21.515Z,19.43
2018-06-11T21:08:51.090Z,19.39
2018-06-11T21:11:20.807Z,19.43
2018-06-11T21:13:50.507Z,19.40
2018-06-11T21:16:20.703Z,19.36
2018-06-11T21:18:50.562Z,19.35
2018-06-11T21:21:20.265Z,19.35
2018-06-11T21:23:50.028Z,19.44
2018-06-11T21:26:19.791Z,19.48
2018-06-11T21:28:49.633Z,19.45
2018-06-11T21:31:19.566Z,19.41
2018-06-11T21:33:49.172Z,19.46
2018-06-11T21:36:18.981Z,19.54
2018-06-11T21:38:48.706Z,19.52
2018-06-11T21:41:20.270Z,19.41
2018-06-11T21:43:50.185Z,19.35
2018-06-11T21:46:20.988Z,19.36
2018-06-11T21:48:51.640Z,19.39
2018-06-11T21:51:21.681Z,19.55
2018-06-11T21:53:51.531Z,19.64
2018-06-11T21:56:21.299Z,19.59
2018-06-11T21:58:51.151Z,19.61
2018-06-11T22:01:20.928Z,19.59
2018-06-11T22:03:50.595Z,19.55
2018-06-11T22:06:21.253Z,19.55
2018-06-11T22:08:51.016Z,19.57
2018-06-11T22:11:20.853Z,19.56
2018-06-11T22:13:50.615Z,19.62
2018-06-11T22:16:20.306Z,19.75
2018-06-11T22:18:50.082Z,19.86
2018-06-11T22:21:19.885Z,19.79
2018-06-11T22:23:49.346Z,19.62
2018-06-11T22:26:19.078Z,19.46
2018-06-11T22:28:48.813Z,19.31
2018-06-11T22:31:18.642Z,19.34
2018-06-11T22:33:48.376Z,19.32
2018-06-11T22:36:18.225Z,19.38
2018-06-11T22:38:47.987Z,19.41
2018-06-11T22:41:17.674Z,19.43
2018-06-11T22:43:47.426Z,19.33
2018-06-11T22:46:17.110Z,19.19
2018-06-11T22:48:46.853Z,19.07
2018-06-11T22:51:17.404Z,19.02
2018-06-11T22:53:47.251Z,18.89
2018-06-11T22:56:16.703Z,18.84
2018-06-11T22:58:46.444Z,18.76
2018-06-11T23:01:16.250Z,18.67
2018-06-11T23:03:45.997Z,18.64
2018-06-11T23:06:15.827Z,18.78
2018-06-11T23:08:45.596Z,18.83
2018-06-11T23:11:15.446Z,18.90
2018-06-11T23:13:45.224Z,18.91
2018-06-11T23:16:15.026Z,18.86
2018-06-11T23:18:44.903Z,18.80
2018-06-11T23:21:14.634Z,18.73
2018-06-11T23:23:44.352Z,18.62
2018-06-11T23:26:14.196Z,18.53
2018-06-11T23:28:44.386Z,18.46
2018-06-11T23:31:14.127Z,18.35
2018-06-11T23:33:44.000Z,18.29
2018-06-11T23:36:13.687Z,18.23
2018-06-11T23:38:43.377Z,18.24
2018-06-11T23:41:13.239Z,18.24
2018-06-11T23:43:42.990Z,18.33
2018-06-11T23:46:12.728Z,18.43
2018-06-11T23:48:42.858Z,18.42
2018-06-11T23:51:12.577Z,18.48
2018-06-11T23:53:42.365Z,18.45
2018-06-11T23:56:12.184Z,18.39
2018-06-11T23:58:42.040Z,18.38
